sensor_id;sensor_type;location;lat;lon;timestamp;P1;durP1;ratioP1;P2;durP2;ratioP2
54193;SDS011;40102;50.906;6.972;2024-01-15T00:00:16;20.58;;;8.07;;
54193;SDS011;40102;50.906;6.972;2024-01-15T00:02:42;21.77;;;8.68;;
54193;SDS011;40102;50.906;6.972;2024-01-15T00:05:07;22.35;;;8.50;;
54193;SDS011;40102;50.906;6.972;2024-01-15T00:07:33;22.63;;;8.10;;
54193;SDS011;40102;50.906;6.972;2024-01-15T00:09:58;24.50;;;8.55;;
54193;SDS011;40102;50.906;6.972;2024-01-15T00:12:23;28.08;;;8.90;;
54193;SDS011;40102;50.906;6.972;2024-01-15T00:14:48;25.27;;;8.57;;
54193;SDS011;40102;50.906;6.972;2024-01-15T00:17:14;22.55;;;7.90;;
54193;SDS011;40102;50.906;6.972;2024-01-15T00:19:39;22.85;;;8.23;;
54193;SDS011;40102;50.906;6.972;2024-01-15T00:22:04;18.92;;;8.15;;
54193;SDS011;40102;50.906;6.972;2024-01-15T00:24:30;28.75;;;8.88;;
54193;SDS011;40102;50.906;6.972;2024-01-15T00:26:55;25.48;;;9.40;;
54193;SDS011;40102;50.906;6.972;2024-01-15T00:29:20;24.88;;;8.93;;
54193;SDS011;40102;50.906;6.972;2024-01-15T00:31:46;24.67;;;8.63;;
54193;SDS011;40102;50.906;6.972;2024-01-15T00:34:13;26.33;;;9.00;;
54193;SDS011;40102;50.906;6.972;2024-01-15T00:36:38;23.80;;;8.55;;
54193;SDS011;40102;50.906;6.972;2024-01-15T00:39:03;29.25;;;8.98;;
54193;SDS011;40102;50.906;6.972;2024-01-15T00:41:30;23.50;;;8.63;;
54193;SDS011;40102;50.906;6.972;2024-01-15T00:43:56;22.27;;;7.88;;
54193;SDS011;40102;50.906;6.972;2024-01-15T00:46:22;22.60;;;8.35;;
54193;SDS011;40102;50.906;6.972;2024-01-15T00:48:47;28.90;;;9.05;;
54193;SDS011;40102;50.906;6.972;2024-01-15T00:51:12;20.95;;;8.73;;
54193;SDS011;40102;50.906;6.972;2024-01-15T00:53:38;26.23;;;9.13;;
54193;SDS011;40102;50.906;6.972;2024-01-15T00:56:03;25.15;;;9.18;;
54193;SDS011;40102;50.906;6.972;2024-01-15T00:58:29;24.33;;;8.88;;
54193;SDS011;40102;50.906;6.972;2024-01-15T01:00:54;25.17;;;9.18;;
54193;SDS011;40102;50.906;6.972;2024-01-15T01:03:20;27.60;;;9.35;;
54193;SDS011;40102;50.906;6.972;2024-01-15T01:05:45;28.25;;;9.32;;
54193;SDS011;40102;50.906;6.972;2024-01-15T01:08:13;22.23;;;8.05;;
54193;SDS011;40102;50.906;6.972;2024-01-15T01:10:41;24.67;;;8.93;;
54193;SDS011;40102;50.906;6.972;2024-01-15T01:13:10;22.98;;;8.93;;
54193;SDS011;40102;50.906;6.972;2024-01-15T01:15:35;25.20;;;8.95;;
54193;SDS011;40102;50.906;6.972;2024-01-15T01:18:00;23.75;;;8.90;;
54193;SDS011;40102;50.906;6.972;2024-01-15T01:20:26;24.45;;;9.55;;
54193;SDS011;40102;50.906;6.972;2024-01-15T01:22:51;22.60;;;8.82;;
54193;SDS011;40102;50.906;6.972;2024-01-15T01:25:16;27.33;;;9.68;;
54193;SDS011;40102;50.906;6.972;2024-01-15T01:27:41;28.08;;;8.73;;
54193;SDS011;40102;50.906;6.972;2024-01-15T01:30:07;27.17;;;10.13;;
54193;SDS011;40102;50.906;6.972;2024-01-15T01:32:32;23.67;;;9.20;;
54193;SDS011;40102;50.906;6.972;2024-01-15T01:34:58;21.42;;;8.60;;
54193;SDS011;40102;50.906;6.972;2024-01-15T01:37:23;26.73;;;8.75;;
54193;SDS011;40102;50.906;6.972;2024-01-15T01:39:48;24.08;;;9.10;;
54193;SDS011;40102;50.906;6.972;2024-01-15T01:42:14;27.23;;;8.80;;
54193;SDS011;40102;50.906;6.972;2024-01-15T01:44:39;22.38;;;9.15;;
54193;SDS011;40102;50.906;6.972;2024-01-15T01:47:05;29.67;;;10.40;;
54193;SDS011;40102;50.906;6.972;2024-01-15T01:49:30;28.80;;;10.38;;
54193;SDS011;40102;50.906;6.972;2024-01-15T01:51:57;23.83;;;9.85;;
54193;SDS011;40102;50.906;6.972;2024-01-15T01:54:25;29.35;;;10.52;;
54193;SDS011;40102;50.906;6.972;2024-01-15T01:56:53;26.75;;;9.90;;
54193;SDS011;40102;50.906;6.972;2024-01-15T01:59:19;30.13;;;11.02;;
54193;SDS011;40102;50.906;6.972;2024-01-15T02:01:44;28.23;;;9.55;;
54193;SDS011;40102;50.906;6.972;2024-01-15T02:04:10;30.63;;;9.73;;
54193;SDS011;40102;50.906;6.972;2024-01-15T02:06:36;24.13;;;9.32;;
54193;SDS011;40102;50.906;6.972;2024-01-15T02:09:02;23.83;;;9.00;;
54193;SDS011;40102;50.906;6.972;2024-01-15T02:11:28;24.40;;;9.30;;
54193;SDS011;40102;50.906;6.972;2024-01-15T02:13:54;24.90;;;9.00;;
54193;SDS011;40102;50.906;6.972;2024-01-15T02:16:20;27.48;;;9.35;;
54193;SDS011;40102;50.906;6.972;2024-01-15T02:18:45;19.20;;;8.23;;
54193;SDS011;40102;50.906;6.972;2024-01-15T02:21:11;25.88;;;8.85;;
54193;SDS011;40102;50.906;6.972;2024-01-15T02:23:37;26.95;;;10.27;;
54193;SDS011;40102;50.906;6.972;2024-01-15T02:26:02;29.98;;;9.15;;
54193;SDS011;40102;50.906;6.972;2024-01-15T02:28:29;27.67;;;9.52;;
54193;SDS011;40102;50.906;6.972;2024-01-15T02:30:55;26.85;;;8.70;;
54193;SDS011;40102;50.906;6.972;2024-01-15T02:33:20;28.83;;;9.27;;
54193;SDS011;40102;50.906;6.972;2024-01-15T02:35:45;22.38;;;9.15;;
54193;SDS011;40102;50.906;6.972;2024-01-15T02:38:15;26.02;;;9.98;;
54193;SDS011;40102;50.906;6.972;2024-01-15T02:40:41;24.77;;;9.00;;
54193;SDS011;40102;50.906;6.972;2024-01-15T02:43:06;24.38;;;8.63;;
54193;SDS011;40102;50.906;6.972;2024-01-15T02:45:31;23.42;;;8.77;;
54193;SDS011;40102;50.906;6.972;2024-01-15T02:47:57;24.85;;;9.45;;
54193;SDS011;40102;50.906;6.972;2024-01-15T02:50:22;25.17;;;10.18;;
54193;SDS011;40102;50.906;6.972;2024-01-15T02:52:47;27.80;;;9.73;;
54193;SDS011;40102;50.906;6.972;2024-01-15T02:55:13;26.92;;;9.30;;
54193;SDS011;40102;50.906;6.972;2024-01-15T02:57:38;24.52;;;9.63;;
54193;SDS011;40102;50.906;6.972;2024-01-15T03:00:04;25.98;;;9.68;;
54193;SDS011;40102;50.906;6.972;2024-01-15T03:02:29;27.55;;;9.75;;
54193;SDS011;40102;50.906;6.972;2024-01-15T03:04:56;29.17;;;10.07;;
54193;SDS011;40102;50.906;6.972;2024-01-15T03:07:22;25.77;;;9.80;;
54193;SDS011;40102;50.906;6.972;2024-01-15T03:09:47;26.52;;;9.02;;
54193;SDS011;40102;50.906;6.972;2024-01-15T03:12:13;21.77;;;9.20;;
54193;SDS011;40102;50.906;6.972;2024-01-15T03:14:38;22.35;;;9.43;;
54193;SDS011;40102;50.906;6.972;2024-01-15T03:17:03;23.27;;;9.00;;
54193;SDS011;40102;50.906;6.972;2024-01-15T03:19:29;22.98;;;9.50;;
54193;SDS011;40102;50.906;6.972;2024-01-15T03:21:55;26.35;;;8.85;;
54193;SDS011;40102;50.906;6.972;2024-01-15T03:24:21;21.58;;;9.02;;
54193;SDS011;40102;50.906;6.972;2024-01-15T03:26:46;26.83;;;9.73;;
54193;SDS011;40102;50.906;6.972;2024-01-15T03:29:11;24.67;;;8.98;;
54193;SDS011;40102;50.906;6.972;2024-01-15T03:31:37;20.15;;;9.27;;
54193;SDS011;40102;50.906;6.972;2024-01-15T03:34:02;25.88;;;9.40;;
54193;SDS011;40102;50.906;6.972;2024-01-15T03:36:28;28.60;;;9.80;;
54193;SDS011;40102;50.906;6.972;2024-01-15T03:38:53;25.58;;;9.45;;
54193;SDS011;40102;50.906;6.972;2024-01-15T03:41:19;22.30;;;9.45;;
54193;SDS011;40102;50.906;6.972;2024-01-15T03:43:44;25.38;;;10.38;;
54193;SDS011;40102;50.906;6.972;2024-01-15T03:46:09;23.85;;;9.25;;
54193;SDS011;40102;50.906;6.972;2024-01-15T03:48:35;26.17;;;9.75;;
54193;SDS011;40102;50.906;6.972;2024-01-15T03:51:00;26.52;;;10.05;;
54193;SDS011;40102;50.906;6.972;2024-01-15T03:53:25;24.00;;;10.13;;
54193;SDS011;40102;50.906;6.972;2024-01-15T03:55:51;21.48;;;9.52;;
54193;SDS011;40102;50.906;6.972;2024-01-15T03:58:17;24.35;;;9.82;;
54193;SDS011;40102;50.906;6.972;2024-01-15T04:00:42;25.58;;;10.10;;
54193;SDS011;40102;50.906;6.972;2024-01-15T04:03:08;21.40;;;9.80;;
54193;SDS011;40102;50.906;6.972;2024-01-15T04:05:33;22.67;;;9.30;;
54193;SDS011;40102;50.906;6.972;2024-01-15T04:07:59;22.38;;;9.75;;
54193;SDS011;40102;50.906;6.972;2024-01-15T04:10:24;23.15;;;9.85;;
54193;SDS011;40102;50.906;6.972;2024-01-15T04:12:50;26.35;;;9.73;;
54193;SDS011;40102;50.906;6.972;2024-01-15T04:15:15;23.42;;;9.35;;
54193;SDS011;40102;50.906;6.972;2024-01-15T04:17:41;24.73;;;9.90;;
54193;SDS011;40102;50.906;6.972;2024-01-15T04:20:06;19.77;;;9.20;;
54193;SDS011;40102;50.906;6.972;2024-01-15T04:22:33;25.80;;;8.98;;
54193;SDS011;40102;50.906;6.972;2024-01-15T04:24:59;27.33;;;10.32;;
54193;SDS011;40102;50.906;6.972;2024-01-15T04:27:24;22.85;;;9.23;;
54193;SDS011;40102;50.906;6.972;2024-01-15T04:29:49;21.42;;;9.63;;
54193;SDS011;40102;50.906;6.972;2024-01-15T04:32:15;23.65;;;9.93;;
54193;SDS011;40102;50.906;6.972;2024-01-15T04:34:40;21.42;;;9.15;;
54193;SDS011;40102;50.906;6.972;2024-01-15T04:37:05;22.92;;;9.15;;
54193;SDS011;40102;50.906;6.972;2024-01-15T04:39:31;22.55;;;8.93;;
54193;SDS011;40102;50.906;6.972;2024-01-15T04:41:56;21.10;;;8.82;;
54193;SDS011;40102;50.906;6.972;2024-01-15T04:44:22;24.13;;;8.82;;
54193;SDS011;40102;50.906;6.972;2024-01-15T04:46:47;20.75;;;9.60;;
54193;SDS011;40102;50.906;6.972;2024-01-15T04:49:12;22.02;;;8.43;;
54193;SDS011;40102;50.906;6.972;2024-01-15T04:51:38;24.42;;;8.27;;
54193;SDS011;40102;50.906;6.972;2024-01-15T04:54:03;21.85;;;8.95;;
54193;SDS011;40102;50.906;6.972;2024-01-15T04:56:29;23.05;;;8.30;;
54193;SDS011;40102;50.906;6.972;2024-01-15T04:58:54;20.25;;;8.10;;
54193;SDS011;40102;50.906;6.972;2024-01-15T05:01:19;17.65;;;7.70;;
54193;SDS011;40102;50.906;6.972;2024-01-15T05:03:45;20.65;;;8.32;;
54193;SDS011;40102;50.906;6.972;2024-01-15T05:06:10;21.23;;;7.97;;
54193;SDS011;40102;50.906;6.972;2024-01-15T05:08:36;16.83;;;8.35;;
54193;SDS011;40102;50.906;6.972;2024-01-15T05:11:01;19.13;;;7.75;;
54193;SDS011;40102;50.906;6.972;2024-01-15T05:13:27;20.05;;;7.57;;
54193;SDS011;40102;50.906;6.972;2024-01-15T05:15:53;18.25;;;7.63;;
54193;SDS011;40102;50.906;6.972;2024-01-15T05:18:18;19.83;;;7.90;;
54193;SDS011;40102;50.906;6.972;2024-01-15T05:20:43;15.95;;;7.30;;
54193;SDS011;40102;50.906;6.972;2024-01-15T05:23:09;19.08;;;8.15;;
54193;SDS011;40102;50.906;6.972;2024-01-15T05:25:34;15.95;;;7.55;;
54193;SDS011;40102;50.906;6.972;2024-01-15T05:27:59;15.48;;;7.20;;
54193;SDS011;40102;50.906;6.972;2024-01-15T05:30:25;18.58;;;7.15;;
54193;SDS011;40102;50.906;6.972;2024-01-15T05:32:50;19.00;;;7.63;;
54193;SDS011;40102;50.906;6.972;2024-01-15T05:35:16;16.23;;;7.18;;
54193;SDS011;40102;50.906;6.972;2024-01-15T05:37:43;15.68;;;6.93;;
54193;SDS011;40102;50.906;6.972;2024-01-15T05:40:10;15.40;;;7.28;;
54193;SDS011;40102;50.906;6.972;2024-01-15T05:42:36;15.30;;;6.90;;
54193;SDS011;40102;50.906;6.972;2024-01-15T05:45:01;15.60;;;6.53;;
54193;SDS011;40102;50.906;6.972;2024-01-15T05:47:29;14.40;;;6.63;;
54193;SDS011;40102;50.906;6.972;2024-01-15T05:49:54;14.10;;;6.57;;
54193;SDS011;40102;50.906;6.972;2024-01-15T05:52:20;16.02;;;6.68;;
54193;SDS011;40102;50.906;6.972;2024-01-15T05:54:46;14.77;;;6.03;;
54193;SDS011;40102;50.906;6.972;2024-01-15T05:57:12;19.50;;;6.03;;
54193;SDS011;40102;50.906;6.972;2024-01-15T05:59:37;12.88;;;5.80;;
54193;SDS011;40102;50.906;6.972;2024-01-15T06:02:02;16.55;;;6.22;;
54193;SDS011;40102;50.906;6.972;2024-01-15T06:04:28;14.43;;;5.95;;
54193;SDS011;40102;50.906;6.972;2024-01-15T06:06:53;14.88;;;5.97;;
54193;SDS011;40102;50.906;6.972;2024-01-15T06:09:19;15.73;;;6.15;;
54193;SDS011;40102;50.906;6.972;2024-01-15T06:11:44;15.10;;;6.20;;
54193;SDS011;40102;50.906;6.972;2024-01-15T06:14:09;17.75;;;6.35;;
54193;SDS011;40102;50.906;6.972;2024-01-15T06:16:35;12.40;;;6.00;;
54193;SDS011;40102;50.906;6.972;2024-01-15T06:19:00;13.55;;;6.78;;
54193;SDS011;40102;50.906;6.972;2024-01-15T06:21:25;15.93;;;6.68;;
54193;SDS011;40102;50.906;6.972;2024-01-15T06:23:51;16.15;;;6.90;;
54193;SDS011;40102;50.906;6.972;2024-01-15T06:26:16;19.40;;;7.93;;
54193;SDS011;40102;50.906;6.972;2024-01-15T06:28:42;22.00;;;7.93;;
54193;SDS011;40102;50.906;6.972;2024-01-15T06:31:07;16.83;;;7.57;;
54193;SDS011;40102;50.906;6.972;2024-01-15T06:33:33;18.30;;;7.03;;
54193;SDS011;40102;50.906;6.972;2024-01-15T06:35:58;16.10;;;7.15;;
54193;SDS011;40102;50.906;6.972;2024-01-15T06:38:23;17.35;;;7.32;;
54193;SDS011;40102;50.906;6.972;2024-01-15T06:40:50;15.68;;;7.07;;
54193;SDS011;40102;50.906;6.972;2024-01-15T06:43:16;16.33;;;7.18;;
54193;SDS011;40102;50.906;6.972;2024-01-15T06:45:42;15.85;;;7.57;;
54193;SDS011;40102;50.906;6.972;2024-01-15T06:48:08;17.85;;;7.75;;
54193;SDS011;40102;50.906;6.972;2024-01-15T06:50:34;18.25;;;7.30;;
54193;SDS011;40102;50.906;6.972;2024-01-15T06:52:59;14.80;;;7.03;;
54193;SDS011;40102;50.906;6.972;2024-01-15T06:55:24;16.90;;;7.68;;
54193;SDS011;40102;50.906;6.972;2024-01-15T06:57:50;13.90;;;7.43;;
54193;SDS011;40102;50.906;6.972;2024-01-15T07:00:16;14.00;;;7.25;;
54193;SDS011;40102;50.906;6.972;2024-01-15T07:02:44;15.65;;;8.00;;
54193;SDS011;40102;50.906;6.972;2024-01-15T07:05:10;19.17;;;7.15;;
54193;SDS011;40102;50.906;6.972;2024-01-15T07:07:36;17.50;;;8.35;;
54193;SDS011;40102;50.906;6.972;2024-01-15T07:10:01;15.32;;;7.57;;
54193;SDS011;40102;50.906;6.972;2024-01-15T07:12:28;14.15;;;7.43;;
54193;SDS011;40102;50.906;6.972;2024-01-15T07:14:54;19.02;;;7.20;;
54193;SDS011;40102;50.906;6.972;2024-01-15T07:17:19;15.52;;;7.28;;
54193;SDS011;40102;50.906;6.972;2024-01-15T07:19:45;16.60;;;7.53;;
54193;SDS011;40102;50.906;6.972;2024-01-15T07:22:11;16.90;;;7.97;;
54193;SDS011;40102;50.906;6.972;2024-01-15T07:24:37;14.60;;;7.28;;
54193;SDS011;40102;50.906;6.972;2024-01-15T07:27:02;16.90;;;7.28;;
54193;SDS011;40102;50.906;6.972;2024-01-15T07:29:29;17.88;;;7.82;;
54193;SDS011;40102;50.906;6.972;2024-01-15T07:31:55;18.55;;;7.18;;
54193;SDS011;40102;50.906;6.972;2024-01-15T07:34:20;17.80;;;7.25;;
54193;SDS011;40102;50.906;6.972;2024-01-15T07:36:46;14.32;;;7.35;;
54193;SDS011;40102;50.906;6.972;2024-01-15T07:39:12;18.05;;;7.53;;
54193;SDS011;40102;50.906;6.972;2024-01-15T07:41:38;15.70;;;7.22;;
54193;SDS011;40102;50.906;6.972;2024-01-15T07:44:04;16.95;;;7.65;;
54193;SDS011;40102;50.906;6.972;2024-01-15T07:46:30;18.40;;;7.97;;
54193;SDS011;40102;50.906;6.972;2024-01-15T07:48:55;19.45;;;8.60;;
54193;SDS011;40102;50.906;6.972;2024-01-15T07:51:23;17.20;;;8.20;;
54193;SDS011;40102;50.906;6.972;2024-01-15T07:53:49;15.63;;;7.45;;
54193;SDS011;40102;50.906;6.972;2024-01-15T07:56:15;18.70;;;8.63;;
54193;SDS011;40102;50.906;6.972;2024-01-15T07:58:41;24.45;;;8.52;;
54193;SDS011;40102;50.906;6.972;2024-01-15T08:01:06;19.10;;;8.60;;
54193;SDS011;40102;50.906;6.972;2024-01-15T08:03:32;19.98;;;8.60;;
54193;SDS011;40102;50.906;6.972;2024-01-15T08:05:57;18.25;;;8.50;;
54193;SDS011;40102;50.906;6.972;2024-01-15T08:08:24;24.10;;;9.27;;
54193;SDS011;40102;50.906;6.972;2024-01-15T08:10:50;21.75;;;9.00;;
54193;SDS011;40102;50.906;6.972;2024-01-15T08:13:16;21.90;;;9.25;;
54193;SDS011;40102;50.906;6.972;2024-01-15T08:15:42;22.45;;;9.43;;
54193;SDS011;40102;50.906;6.972;2024-01-15T08:18:07;22.75;;;9.10;;
54193;SDS011;40102;50.906;6.972;2024-01-15T08:20:32;18.20;;;9.10;;
54193;SDS011;40102;50.906;6.972;2024-01-15T08:22:57;19.92;;;8.65;;
54193;SDS011;40102;50.906;6.972;2024-01-15T08:25:23;21.15;;;9.40;;
54193;SDS011;40102;50.906;6.972;2024-01-15T08:27:48;21.02;;;8.77;;
54193;SDS011;40102;50.906;6.972;2024-01-15T08:30:14;20.48;;;8.85;;
54193;SDS011;40102;50.906;6.972;2024-01-15T08:32:39;18.27;;;8.57;;
54193;SDS011;40102;50.906;6.972;2024-01-15T08:35:08;20.20;;;9.40;;
54193;SDS011;40102;50.906;6.972;2024-01-15T08:37:34;19.08;;;8.48;;
54193;SDS011;40102;50.906;6.972;2024-01-15T08:39:59;19.75;;;8.52;;
54193;SDS011;40102;50.906;6.972;2024-01-15T08:42:24;19.08;;;8.98;;
54193;SDS011;40102;50.906;6.972;2024-01-15T08:44:50;17.35;;;8.25;;
54193;SDS011;40102;50.906;6.972;2024-01-15T08:47:15;22.45;;;8.32;;
54193;SDS011;40102;50.906;6.972;2024-01-15T08:49:41;21.85;;;7.90;;
54193;SDS011;40102;50.906;6.972;2024-01-15T08:52:08;17.65;;;8.00;;
54193;SDS011;40102;50.906;6.972;2024-01-15T08:54:34;24.20;;;9.43;;
54193;SDS011;40102;50.906;6.972;2024-01-15T08:57:04;17.08;;;8.00;;
54193;SDS011;40102;50.906;6.972;2024-01-15T08:59:30;17.45;;;8.45;;
54193;SDS011;40102;50.906;6.972;2024-01-15T09:01:55;18.98;;;7.78;;
54193;SDS011;40102;50.906;6.972;2024-01-15T09:04:22;18.75;;;7.72;;
54193;SDS011;40102;50.906;6.972;2024-01-15T09:06:48;17.48;;;7.18;;
54193;SDS011;40102;50.906;6.972;2024-01-15T09:09:13;19.05;;;7.97;;
54193;SDS011;40102;50.906;6.972;2024-01-15T09:11:41;17.05;;;6.97;;
54193;SDS011;40102;50.906;6.972;2024-01-15T09:14:07;15.80;;;6.85;;
54193;SDS011;40102;50.906;6.972;2024-01-15T09:16:34;17.25;;;6.90;;
54193;SDS011;40102;50.906;6.972;2024-01-15T09:18:59;14.02;;;6.03;;
54193;SDS011;40102;50.906;6.972;2024-01-15T09:21:25;15.27;;;5.97;;
54193;SDS011;40102;50.906;6.972;2024-01-15T09:23:50;14.07;;;5.93;;
54193;SDS011;40102;50.906;6.972;2024-01-15T09:26:16;12.52;;;5.57;;
54193;SDS011;40102;50.906;6.972;2024-01-15T09:28:41;13.05;;;5.05;;
54193;SDS011;40102;50.906;6.972;2024-01-15T09:31:07;14.75;;;4.95;;
54193;SDS011;40102;50.906;6.972;2024-01-15T09:33:32;10.23;;;5.47;;
54193;SDS011;40102;50.906;6.972;2024-01-15T09:36:01;10.38;;;4.75;;
54193;SDS011;40102;50.906;6.972;2024-01-15T09:38:28;11.52;;;4.63;;
54193;SDS011;40102;50.906;6.972;2024-01-15T09:40:54;11.27;;;5.40;;
54193;SDS011;40102;50.906;6.972;2024-01-15T09:43:20;15.15;;;6.05;;
54193;SDS011;40102;50.906;6.972;2024-01-15T09:45:46;12.50;;;5.32;;
54193;SDS011;40102;50.906;6.972;2024-01-15T09:48:11;10.07;;;5.28;;
54193;SDS011;40102;50.906;6.972;2024-01-15T09:50:39;11.48;;;5.47;;
54193;SDS011;40102;50.906;6.972;2024-01-15T09:53:05;11.65;;;4.68;;
54193;SDS011;40102;50.906;6.972;2024-01-15T09:55:30;7.40;;;4.30;;
54193;SDS011;40102;50.906;6.972;2024-01-15T09:57:57;9.52;;;4.78;;
54193;SDS011;40102;50.906;6.972;2024-01-15T10:00:25;6.43;;;3.90;;
54193;SDS011;40102;50.906;6.972;2024-01-15T10:02:51;7.10;;;3.88;;
54193;SDS011;40102;50.906;6.972;2024-01-15T10:05:17;6.95;;;3.88;;
54193;SDS011;40102;50.906;6.972;2024-01-15T10:07:42;6.18;;;3.50;;
54193;SDS011;40102;50.906;6.972;2024-01-15T10:10:10;6.10;;;3.55;;
54193;SDS011;40102;50.906;6.972;2024-01-15T10:12:36;8.90;;;4.03;;
54193;SDS011;40102;50.906;6.972;2024-01-15T10:15:04;7.13;;;3.65;;
54193;SDS011;40102;50.906;6.972;2024-01-15T10:17:29;5.95;;;3.65;;
54193;SDS011;40102;50.906;6.972;2024-01-15T10:19:56;8.70;;;3.22;;
54193;SDS011;40102;50.906;6.972;2024-01-15T10:22:22;7.80;;;3.67;;
54193;SDS011;40102;50.906;6.972;2024-01-15T10:24:48;7.97;;;3.10;;
54193;SDS011;40102;50.906;6.972;2024-01-15T10:27:13;7.18;;;3.83;;
54193;SDS011;40102;50.906;6.972;2024-01-15T10:29:40;5.80;;;2.92;;
54193;SDS011;40102;50.906;6.972;2024-01-15T10:32:07;6.75;;;3.08;;
54193;SDS011;40102;50.906;6.972;2024-01-15T10:34:38;6.68;;;3.20;;
54193;SDS011;40102;50.906;6.972;2024-01-15T10:37:07;6.28;;;2.97;;
54193;SDS011;40102;50.906;6.972;2024-01-15T10:39:32;7.47;;;3.33;;
54193;SDS011;40102;50.906;6.972;2024-01-15T10:41:58;5.57;;;3.22;;
54193;SDS011;40102;50.906;6.972;2024-01-15T10:44:24;8.32;;;4.05;;
54193;SDS011;40102;50.906;6.972;2024-01-15T10:46:50;5.57;;;3.28;;
54193;SDS011;40102;50.906;6.972;2024-01-15T10:49:16;7.00;;;3.67;;
54193;SDS011;40102;50.906;6.972;2024-01-15T10:51:44;5.85;;;3.13;;
54193;SDS011;40102;50.906;6.972;2024-01-15T10:54:09;5.68;;;2.83;;
54193;SDS011;40102;50.906;6.972;2024-01-15T10:56:36;6.25;;;2.90;;
54193;SDS011;40102;50.906;6.972;2024-01-15T10:59:02;6.68;;;2.90;;
54193;SDS011;40102;50.906;6.972;2024-01-15T11:01:29;5.47;;;2.60;;
54193;SDS011;40102;50.906;6.972;2024-01-15T11:03:55;7.55;;;2.60;;
54193;SDS011;40102;50.906;6.972;2024-01-15T11:06:24;4.15;;;2.67;;
54193;SDS011;40102;50.906;6.972;2024-01-15T11:08:52;5.13;;;2.53;;
54193;SDS011;40102;50.906;6.972;2024-01-15T11:11:18;5.03;;;2.30;;
54193;SDS011;40102;50.906;6.972;2024-01-15T11:13:45;6.07;;;2.55;;
54193;SDS011;40102;50.906;6.972;2024-01-15T11:16:14;4.97;;;2.90;;
54193;SDS011;40102;50.906;6.972;2024-01-15T11:18:48;3.97;;;2.42;;
54193;SDS011;40102;50.906;6.972;2024-01-15T11:21:27;4.40;;;2.60;;
54193;SDS011;40102;50.906;6.972;2024-01-15T11:26:28;4.93;;;2.95;;
54193;SDS011;40102;50.906;6.972;2024-01-15T11:28:55;4.32;;;2.72;;
54193;SDS011;40102;50.906;6.972;2024-01-15T11:31:26;3.92;;;2.60;;
54193;SDS011;40102;50.906;6.972;2024-01-15T11:33:55;3.63;;;2.28;;
54193;SDS011;40102;50.906;6.972;2024-01-15T11:36:21;4.82;;;2.83;;
54193;SDS011;40102;50.906;6.972;2024-01-15T11:41:57;5.28;;;3.53;;
54193;SDS011;40102;50.906;6.972;2024-01-15T11:44:25;5.43;;;3.58;;
54193;SDS011;40102;50.906;6.972;2024-01-15T11:46:57;5.57;;;3.53;;
54193;SDS011;40102;50.906;6.972;2024-01-15T11:49:28;7.43;;;4.47;;
54193;SDS011;40102;50.906;6.972;2024-01-15T11:52:11;7.45;;;4.25;;
54193;SDS011;40102;50.906;6.972;2024-01-15T11:54:37;7.65;;;4.32;;
54193;SDS011;40102;50.906;6.972;2024-01-15T11:57:09;6.05;;;4.00;;
54193;SDS011;40102;50.906;6.972;2024-01-15T11:59:40;7.40;;;3.95;;
54193;SDS011;40102;50.906;6.972;2024-01-15T12:02:06;6.75;;;4.38;;
54193;SDS011;40102;50.906;6.972;2024-01-15T12:04:32;7.38;;;4.10;;
54193;SDS011;40102;50.906;6.972;2024-01-15T12:06:57;7.53;;;4.20;;
54193;SDS011;40102;50.906;6.972;2024-01-15T12:09:23;8.18;;;4.13;;
54193;SDS011;40102;50.906;6.972;2024-01-15T12:11:51;7.03;;;4.22;;
54193;SDS011;40102;50.906;6.972;2024-01-15T12:14:24;7.53;;;4.35;;
54193;SDS011;40102;50.906;6.972;2024-01-15T12:16:49;7.63;;;4.35;;
54193;SDS011;40102;50.906;6.972;2024-01-15T12:19:15;8.57;;;4.40;;
54193;SDS011;40102;50.906;6.972;2024-01-15T12:21:41;8.32;;;4.28;;
54193;SDS011;40102;50.906;6.972;2024-01-15T12:24:09;10.18;;;4.65;;
54193;SDS011;40102;50.906;6.972;2024-01-15T12:26:35;14.52;;;4.95;;
54193;SDS011;40102;50.906;6.972;2024-01-15T12:29:05;12.23;;;5.38;;
54193;SDS011;40102;50.906;6.972;2024-01-15T12:31:31;11.77;;;6.47;;
54193;SDS011;40102;50.906;6.972;2024-01-15T12:33:57;7.70;;;4.47;;
54193;SDS011;40102;50.906;6.972;2024-01-15T12:36:23;11.10;;;4.30;;
54193;SDS011;40102;50.906;6.972;2024-01-15T12:38:48;8.77;;;4.25;;
54193;SDS011;40102;50.906;6.972;2024-01-15T12:41:13;10.05;;;3.75;;
54193;SDS011;40102;50.906;6.972;2024-01-15T12:43:40;9.02;;;4.05;;
54193;SDS011;40102;50.906;6.972;2024-01-15T12:46:05;6.75;;;3.28;;
54193;SDS011;40102;50.906;6.972;2024-01-15T12:48:31;12.52;;;4.20;;
54193;SDS011;40102;50.906;6.972;2024-01-15T12:50:56;8.25;;;3.67;;
54193;SDS011;40102;50.906;6.972;2024-01-15T12:53:21;7.38;;;3.72;;
54193;SDS011;40102;50.906;6.972;2024-01-15T12:55:47;7.05;;;3.42;;
54193;SDS011;40102;50.906;6.972;2024-01-15T12:58:13;5.97;;;3.30;;
54193;SDS011;40102;50.906;6.972;2024-01-15T13:00:38;11.20;;;3.53;;
54193;SDS011;40102;50.906;6.972;2024-01-15T13:03:04;6.03;;;3.20;;
54193;SDS011;40102;50.906;6.972;2024-01-15T13:05:31;6.28;;;3.05;;
54193;SDS011;40102;50.906;6.972;2024-01-15T13:07:57;7.55;;;3.05;;
54193;SDS011;40102;50.906;6.972;2024-01-15T13:10:24;8.27;;;3.33;;
54193;SDS011;40102;50.906;6.972;2024-01-15T13:12:50;5.97;;;2.67;;
54193;SDS011;40102;50.906;6.972;2024-01-15T13:15:16;7.25;;;3.00;;
54193;SDS011;40102;50.906;6.972;2024-01-15T13:17:41;9.80;;;3.17;;
54193;SDS011;40102;50.906;6.972;2024-01-15T13:20:07;6.82;;;3.15;;
54193;SDS011;40102;50.906;6.972;2024-01-15T13:22:37;10.37;;;3.10;;
54193;SDS011;40102;50.906;6.972;2024-01-15T13:25:04;10.85;;;3.33;;
54193;SDS011;40102;50.906;6.972;2024-01-15T13:27:32;9.05;;;3.00;;
54193;SDS011;40102;50.906;6.972;2024-01-15T13:29:57;8.00;;;2.80;;
54193;SDS011;40102;50.906;6.972;2024-01-15T13:32:24;4.15;;;2.53;;
54193;SDS011;40102;50.906;6.972;2024-01-15T13:34:51;9.13;;;2.90;;
54193;SDS011;40102;50.906;6.972;2024-01-15T13:37:16;9.35;;;2.45;;
54193;SDS011;40102;50.906;6.972;2024-01-15T13:39:47;6.45;;;2.80;;
54193;SDS011;40102;50.906;6.972;2024-01-15T13:42:12;8.50;;;2.45;;
54193;SDS011;40102;50.906;6.972;2024-01-15T13:44:38;4.28;;;2.30;;
54193;SDS011;40102;50.906;6.972;2024-01-15T13:47:03;8.95;;;3.13;;
54193;SDS011;40102;50.906;6.972;2024-01-15T13:49:30;5.55;;;2.47;;
54193;SDS011;40102;50.906;6.972;2024-01-15T13:51:55;7.55;;;2.78;;
54193;SDS011;40102;50.906;6.972;2024-01-15T13:54:20;4.18;;;1.98;;
54193;SDS011;40102;50.906;6.972;2024-01-15T13:56:46;7.53;;;1.80;;
54193;SDS011;40102;50.906;6.972;2024-01-15T13:59:12;2.38;;;1.55;;
54193;SDS011;40102;50.906;6.972;2024-01-15T14:01:38;2.22;;;1.50;;
54193;SDS011;40102;50.906;6.972;2024-01-15T14:04:03;2.70;;;1.60;;
54193;SDS011;40102;50.906;6.972;2024-01-15T14:06:29;1.85;;;1.20;;
54193;SDS011;40102;50.906;6.972;2024-01-15T14:08:54;3.28;;;1.35;;
54193;SDS011;40102;50.906;6.972;2024-01-15T14:11:20;3.47;;;1.30;;
54193;SDS011;40102;50.906;6.972;2024-01-15T14:13:45;3.33;;;1.30;;
54193;SDS011;40102;50.906;6.972;2024-01-15T14:16:10;3.08;;;1.30;;
54193;SDS011;40102;50.906;6.972;2024-01-15T14:18:36;1.63;;;1.00;;
54193;SDS011;40102;50.906;6.972;2024-01-15T14:21:02;2.58;;;1.20;;
54193;SDS011;40102;50.906;6.972;2024-01-15T14:23:28;2.45;;;1.17;;
54193;SDS011;40102;50.906;6.972;2024-01-15T14:25:54;2.42;;;1.23;;
54193;SDS011;40102;50.906;6.972;2024-01-15T14:28:19;3.90;;;1.27;;
54193;SDS011;40102;50.906;6.972;2024-01-15T14:30:44;2.40;;;1.40;;
54193;SDS011;40102;50.906;6.972;2024-01-15T14:33:09;4.28;;;1.30;;
54193;SDS011;40102;50.906;6.972;2024-01-15T14:35:35;2.67;;;1.40;;